Time;durP1;ratioP1;P1;durP2;ratioP2;P2;SDS_P1;SDS_P2;PMS_P1;PMS_P2;Temp;Humidity;BMP_temperature;BMP_pressure;BME280_temperature;BME280_humidity;BME280_pressure;Samples;Min_cycle;Max_cycle;Signal;HPM_P1;HPM_P2
2022/12/29 00:00:00;;;;;;;5.90;4.30;;;9.90;99.90;;;;;;5063436;28;20064;-69
2022/12/29 00:02:26;;;;;;;5.28;4.63;;;9.90;99.90;;;;;;5062209;28;20045;-69
2022/12/29 00:04:52;;;;;;;5.13;4.63;;;10.00;99.90;;;;;;5063821;28;20120;-68
2022/12/29 00:07:19;;;;;;;5.20;4.70;;;10.00;99.90;;;;;;5064245;28;20056;-69
2022/12/29 00:09:44;;;;;;;5.75;4.75;;;10.00;99.90;;;;;;5065666;28;20079;-69
2022/12/29 00:12:10;;;;;;;5.47;4.35;;;10.00;99.90;;;;;;5067568;28;20079;-69
2022/12/29 00:17:20;;;;;;;5.20;4.70;;;10.00;99.90;;;;;;5056571;28;20139;-68
2022/12/29 00:36:32;;;;;;;5.05;4.47;;;10.00;99.90;;;;;;5060143;28;20078;-68
2022/12/29 00:44:31;;;;;;;5.10;4.60;;;10.00;99.90;;;;;;5066000;28;20540;-68
2022/12/29 00:47:02;;;;;;;4.82;3.97;;;10.00;99.90;;;;;;5062947;28;20084;-68
2022/12/29 00:49:30;;;;;;;4.35;3.80;;;10.10;99.90;;;;;;5061108;28;20032;-68
2022/12/29 00:52:09;;;;;;;4.03;3.63;;;10.10;99.90;;;;;;5056905;28;20036;-68
2022/12/29 00:54:39;;;;;;;4.20;3.80;;;10.10;99.90;;;;;;5056445;28;20172;-68
2022/12/29 00:57:06;;;;;;;5.20;3.60;;;10.10;99.90;;;;;;5065474;28;20196;-68
2022/12/29 00:59:35;;;;;;;6.75;3.25;;;10.10;99.90;;;;;;5063174;28;20028;-68
2022/12/29 01:02:01;;;;;;;4.68;4.18;;;10.20;99.90;;;;;;5059404;28;20183;-68
2022/12/29 01:04:26;;;;;;;3.83;3.15;;;10.10;99.90;;;;;;5058193;28;20111;-68
2022/12/29 01:06:53;;;;;;;5.75;3.95;;;10.10;99.90;;;;;;5058947;28;20543;-68
2022/12/29 01:12:05;;;;;;;4.15;3.30;;;10.00;99.90;;;;;;5061720;28;20036;-68
2022/12/29 01:14:31;;;;;;;3.65;3.33;;;10.10;99.90;;;;;;5064793;28;20036;-68
2022/12/29 01:16:58;;;;;;;5.50;3.58;;;10.10;99.90;;;;;;5063452;28;20056;-68
2022/12/29 01:19:24;;;;;;;3.55;3.22;;;10.10;99.90;;;;;;5062711;28;20445;-68
2022/12/29 01:21:50;;;;;;;4.13;2.95;;;10.10;99.90;;;;;;5057402;28;20146;-68
2022/12/29 01:24:18;;;;;;;3.50;2.75;;;10.20;99.90;;;;;;5057186;28;20120;-68
2022/12/29 01:26:44;;;;;;;4.00;2.90;;;10.20;99.90;;;;;;5061117;28;20141;-68
2022/12/29 01:29:10;;;;;;;4.03;2.80;;;10.20;99.90;;;;;;5053573;28;20064;-68
2022/12/29 01:31:36;;;;;;;3.47;3.15;;;10.20;99.90;;;;;;5059128;28;20052;-68
2022/12/29 01:34:03;;;;;;;3.40;2.97;;;10.30;99.90;;;;;;5063345;28;20040;-68
2022/12/29 01:36:28;;;;;;;3.50;2.65;;;10.30;99.90;;;;;;5063418;28;20493;-68
2022/12/29 01:38:54;;;;;;;4.07;2.78;;;10.30;99.90;;;;;;5068977;28;20181;-68
2022/12/29 01:41:20;;;;;;;2.78;2.53;;;10.30;99.90;;;;;;5077907;28;20037;-68
2022/12/29 01:43:52;;;;;;;3.47;2.30;;;10.30;99.90;;;;;;5064084;28;20040;-68
2022/12/29 01:46:26;;;;;;;5.03;2.30;;;10.30;99.90;;;;;;5077539;28;20033;-68
2022/12/29 01:49:18;;;;;;;4.13;2.47;;;10.40;99.90;;;;;;5061607;28;20127;-68
2022/12/29 01:51:57;;;;;;;5.47;2.90;;;10.40;99.90;;;;;;5059120;28;20056;-68
2022/12/29 01:54:42;;;;;;;2.80;2.60;;;10.40;99.90;;;;;;5064750;28;20032;-68
2022/12/29 01:57:12;;;;;;;4.10;2.67;;;10.40;99.90;;;;;;5075665;28;20044;-68
2022/12/29 01:59:47;;;;;;;3.72;2.83;;;10.40;99.90;;;;;;5059041;28;20045;-68
2022/12/29 02:02:13;;;;;;;2.38;2.17;;;10.40;99.90;;;;;;5064434;28;20033;-66
2022/12/29 02:04:44;;;;;;;3.10;2.50;;;10.40;99.90;;;;;;5081301;28;20032;-66
2022/12/29 02:07:24;;;;;;;3.15;2.33;;;10.40;99.90;;;;;;5076381;28;20086;-66
2022/12/29 02:09:52;;;;;;;3.67;2.35;;;10.40;99.90;;;;;;5057562;28;20044;-66
2022/12/29 02:12:20;;;;;;;4.40;2.50;;;10.40;99.90;;;;;;5063278;28;20881;-66
2022/12/29 02:14:49;;;;;;;2.70;2.10;;;10.40;99.90;;;;;;5079450;28;20067;-67
2022/12/29 02:17:36;;;;;;;2.40;2.17;;;10.40;99.90;;;;;;5076236;28;20083;-66
2022/12/29 02:20:27;;;;;;;2.70;1.83;;;10.40;99.90;;;;;;5057866;28;20664;-65
2022/12/29 02:22:59;;;;;;;2.95;1.80;;;10.50;99.90;;;;;;5081127;28;20043;-65
2022/12/29 02:25:49;;;;;;;2.10;1.85;;;10.50;99.90;;;;;;5082235;28;20536;-65
2022/12/29 02:28:42;;;;;;;7.78;2.17;;;10.50;99.90;;;;;;5078806;28;20044;-65
2022/12/29 02:31:19;;;;;;;3.70;1.90;;;10.50;99.90;;;;;;5061785;28;20449;-65
2022/12/29 02:34:17;;;;;;;4.88;2.60;;;10.50;99.90;;;;;;5061956;28;20447;-66
2022/12/29 02:37:03;;;;;;;4.43;2.08;;;10.50;99.90;;;;;;5050229;28;20051;-66
2022/12/29 02:39:40;;;;;;;2.35;2.00;;;10.40;99.90;;;;;;5054646;28;20512;-66
2022/12/29 02:42:12;;;;;;;3.03;2.13;;;10.50;99.90;;;;;;5069927;28;20039;-66
2022/12/29 02:44:56;;;;;;;3.20;1.92;;;10.40;99.90;;;;;;5044944;28;20032;-66
2022/12/29 02:47:51;;;;;;;2.47;1.45;;;10.40;99.90;;;;;;5075251;28;20426;-65
2022/12/29 02:50:30;;;;;;;2.13;1.67;;;10.40;99.90;;;;;;5065781;28;20051;-65
2022/12/29 02:54:40;;;;;;;3.35;1.50;;;10.40;99.90;;;;;;5077589;28;20569;-65
2022/12/29 02:56:03;;;;;;;3.50;1.70;;;10.40;99.90;;;;;;5059350;28;20087;-66
2022/12/29 02:58:29;;;;;;;4.93;1.80;;;10.40;99.90;;;;;;5083044;28;20433;-65
2022/12/29 03:01:23;;;;;;;2.28;1.30;;;10.30;99.90;;;;;;5061981;28;20032;-65
2022/12/29 03:04:07;;;;;;;3.17;1.35;;;10.30;99.90;;;;;;5077806;28;20051;-65
2022/12/29 03:06:51;;;;;;;1.90;1.25;;;10.40;99.90;;;;;;5058170;28;20043;-66
2022/12/29 03:09:43;;;;;;;2.58;1.27;;;10.40;99.90;;;;;;5083174;28;20123;-65
2022/12/29 03:12:20;;;;;;;2.10;1.30;;;10.40;99.90;;;;;;5060871;28;20482;-66
2022/12/29 03:17:45;;;;;;;2.70;0.90;;;10.30;99.90;;;;;;5060929;28;20404;-65
2022/12/29 03:20:18;;;;;;;1.20;0.85;;;10.30;99.90;;;;;;5061860;28;20041;-65
2022/12/29 03:22:49;;;;;;;2.03;0.80;;;10.40;99.90;;;;;;5066939;28;20484;-65
2022/12/29 03:25:27;;;;;;;1.60;0.60;;;10.40;99.90;;;;;;5060488;28;20392;-65
2022/12/29 03:28:05;;;;;;;4.82;0.95;;;10.40;99.90;;;;;;5062727;28;20067;-65
2022/12/29 03:30:32;;;;;;;2.28;0.90;;;10.40;99.90;;;;;;5079108;28;20396;-65
2022/12/29 03:33:07;;;;;;;2.47;0.80;;;10.40;99.90;;;;;;5082690;28;20032;-66
2022/12/29 03:35:37;;;;;;;2.10;0.85;;;10.40;99.90;;;;;;5063649;28;20044;-65
2022/12/29 03:38:17;;;;;;;3.25;0.80;;;10.50;99.90;;;;;;5086751;28;20127;-65
2022/12/29 03:40:55;;;;;;;1.95;0.98;;;10.50;99.90;;;;;;5070235;28;20044;-65
2022/12/29 03:43:21;;;;;;;1.88;0.85;;;10.40;99.90;;;;;;5063863;28;20071;-65
2022/12/29 03:45:47;;;;;;;3.75;0.80;;;10.40;99.90;;;;;;5083273;28;20491;-65
2022/12/29 03:48:12;;;;;;;3.50;1.00;;;10.40;99.90;;;;;;5063931;28;20047;-65
2022/12/29 03:50:38;;;;;;;2.28;0.75;;;10.40;99.90;;;;;;5080893;28;20041;-65
2022/12/29 03:53:04;;;;;;;4.57;0.95;;;10.40;99.90;;;;;;5073160;28;20039;-65
2022/12/29 03:55:30;;;;;;;2.65;0.65;;;10.40;99.90;;;;;;5083224;28;20036;-65
2022/12/29 03:57:55;;;;;;;3.22;0.65;;;10.40;99.90;;;;;;5066914;28;20051;-66
2022/12/29 04:00:21;;;;;;;2.22;0.70;;;10.40;99.90;;;;;;5078193;28;20115;-65
2022/12/29 04:02:47;;;;;;;6.45;1.25;;;10.40;99.90;;;;;;5063206;28;20401;-65
2022/12/29 04:05:12;;;;;;;2.70;0.73;;;10.40;99.90;;;;;;5079125;28;20364;-65
2022/12/29 04:07:38;;;;;;;6.47;0.77;;;10.30;99.90;;;;;;5065548;28;20043;-65
2022/12/29 04:10:04;;;;;;;4.82;0.73;;;10.20;99.90;;;;;;5058780;28;20048;-65
2022/12/29 04:12:30;;;;;;;3.75;0.82;;;10.10;99.90;;;;;;5059724;28;20044;-66
2022/12/29 04:14:56;;;;;;;2.05;0.70;;;10.10;99.90;;;;;;5081116;28;20119;-65
2022/12/29 04:17:21;;;;;;;5.75;1.00;;;10.00;99.90;;;;;;5067566;28;20479;-65
2022/12/29 04:19:48;;;;;;;3.95;0.60;;;10.00;99.90;;;;;;5065622;28;20036;-66
2022/12/29 04:22:14;;;;;;;2.53;0.57;;;10.00;99.90;;;;;;5057188;28;20395;-65
2022/12/29 04:24:40;;;;;;;2.03;0.50;;;9.90;99.90;;;;;;5061764;28;20041;-65
2022/12/29 04:27:06;;;;;;;4.40;0.40;;;9.80;99.90;;;;;;5069612;28;20064;-66
2022/12/29 04:29:31;;;;;;;4.32;0.75;;;9.80;99.90;;;;;;5058003;28;20044;-65
2022/12/29 04:31:57;;;;;;;4.30;0.80;;;9.70;99.90;;;;;;5059754;28;20045;-65
2022/12/29 04:34:23;;;;;;;2.70;0.60;;;9.70;99.90;;;;;;5085001;28;20044;-65
2022/12/29 04:36:49;;;;;;;3.05;0.60;;;9.60;99.90;;;;;;5048842;28;20036;-64
2022/12/29 04:39:15;;;;;;;2.60;0.70;;;9.50;99.90;;;;;;5060092;28;20454;-65
2022/12/29 04:41:41;;;;;;;7.00;1.10;;;9.50;99.90;;;;;;5065940;28;20037;-65
2022/12/29 04:44:07;;;;;;;4.88;1.13;;;9.50;99.90;;;;;;5085090;28;20028;-65
2022/12/29 04:46:32;;;;;;;5.70;1.35;;;9.40;99.90;;;;;;5045891;28;20032;-65
2022/12/29 04:49:00;;;;;;;5.78;1.00;;;9.50;99.90;;;;;;5087069;28;20077;-65
2022/12/29 04:51:26;;;;;;;5.88;1.52;;;9.50;99.90;;;;;;5062402;28;20119;-65
2022/12/29 04:53:51;;;;;;;13.48;1.75;;;9.50;99.90;;;;;;5060951;28;20194;-64
2022/12/29 04:56:17;;;;;;;9.40;1.25;;;9.50;99.90;;;;;;5078261;28;20045;-65
2022/12/29 04:58:43;;;;;;;5.32;0.90;;;9.60;99.90;;;;;;5062117;28;20037;-66
2022/12/29 05:01:09;;;;;;;5.95;1.13;;;9.50;99.90;;;;;;5082103;28;20116;-65
2022/12/29 05:03:35;;;;;;;8.48;1.23;;;9.50;99.90;;;;;;5083325;28;20498;-65
2022/12/29 05:06:01;;;;;;;6.97;1.10;;;9.50;99.90;;;;;;5048157;28;20028;-66
2022/12/29 05:08:26;;;;;;;8.40;1.20;;;9.50;99.90;;;;;;5077976;28;20029;-66
2022/12/29 05:10:52;;;;;;;9.38;1.30;;;9.40;99.90;;;;;;5078128;28;20175;-65
2022/12/29 05:13:18;;;;;;;8.88;1.13;;;9.40;99.90;;;;;;5069731;28;20036;-65
2022/12/29 05:15:52;;;;;;;5.68;0.75;;;9.40;99.90;;;;;;5061061;28;20093;-65
2022/12/29 05:18:18;;;;;;;6.30;1.00;;;9.40;99.90;;;;;;5076840;28;20072;-65
2022/12/29 05:20:45;;;;;;;8.32;0.98;;;9.40;99.90;;;;;;5061291;28;20036;-65
2022/12/29 05:23:11;;;;;;;8.70;1.23;;;9.40;99.90;;;;;;5077185;28;20048;-65
2022/12/29 05:25:37;;;;;;;10.20;1.10;;;9.30;99.90;;;;;;5084231;28;20476;-64
2022/12/29 05:28:03;;;;;;;4.93;0.88;;;9.30;99.90;;;;;;5077652;28;20037;-65
2022/12/29 05:30:29;;;;;;;7.80;1.10;;;9.30;99.90;;;;;;5065756;28;20043;-64
2022/12/29 05:32:55;;;;;;;7.43;0.88;;;9.30;99.90;;;;;;5064334;28;20494;-65
2022/12/29 05:35:20;;;;;;;5.72;0.88;;;9.30;99.90;;;;;;5087545;28;20621;-65
2022/12/29 05:37:46;;;;;;;7.38;0.88;;;9.30;99.90;;;;;;5063576;28;20041;-65
2022/12/29 05:40:12;;;;;;;8.23;1.83;;;9.30;99.90;;;;;;5060276;28;20045;-65
2022/12/29 05:42:38;;;;;;;5.53;1.10;;;9.30;99.90;;;;;;5062015;28;20669;-65
2022/12/29 05:45:06;;;;;;;8.20;1.27;;;9.30;99.90;;;;;;5061634;28;20036;-65
2022/12/29 05:47:32;;;;;;;4.13;0.90;;;9.20;99.90;;;;;;5079626;28;20090;-65
2022/12/29 05:49:58;;;;;;;4.75;0.95;;;9.20;99.90;;;;;;5078413;28;20036;-65
2022/12/29 05:52:24;;;;;;;5.53;1.02;;;9.20;99.90;;;;;;5042330;28;20053;-66
2022/12/29 05:54:50;;;;;;;5.45;0.98;;;9.30;99.90;;;;;;5058713;28;20123;-65
2022/12/29 05:57:15;;;;;;;3.05;0.80;;;9.30;99.90;;;;;;5081482;28;20388;-65
2022/12/29 05:59:41;;;;;;;4.95;1.23;;;9.30;99.90;;;;;;5062903;28;20559;-65
2022/12/29 06:02:07;;;;;;;3.90;0.75;;;9.30;99.90;;;;;;5078289;28;20049;-65
2022/12/29 06:04:32;;;;;;;6.95;1.40;;;9.30;99.90;;;;;;5083440;28;20032;-65
2022/12/29 06:06:58;;;;;;;5.03;0.80;;;9.30;99.90;;;;;;5060779;28;20124;-66
2022/12/29 06:09:24;;;;;;;6.07;1.00;;;9.30;99.90;;;;;;5067151;28;20497;-65
2022/12/29 06:11:49;;;;;;;7.50;1.30;;;9.30;99.90;;;;;;5085265;28;20054;-65
2022/12/29 06:14:15;;;;;;;7.97;1.25;;;9.30;99.90;;;;;;5079158;28;20454;-65
2022/12/29 06:16:41;;;;;;;8.52;1.30;;;9.30;99.90;;;;;;5082956;28;20052;-65
2022/12/29 06:19:07;;;;;;;7.90;1.30;;;9.30;99.90;;;;;;5083787;28;20072;-65
2022/12/29 06:21:33;;;;;;;12.63;1.10;;;9.30;99.90;;;;;;5066213;28;20101;-65
2022/12/29 06:23:58;;;;;;;6.78;1.20;;;9.30;99.90;;;;;;5064269;28;20066;-64
2022/12/29 06:26:24;;;;;;;9.15;1.65;;;9.30;99.90;;;;;;5079509;28;20430;-65
2022/12/29 06:28:50;;;;;;;14.57;1.60;;;9.30;99.90;;;;;;5065302;28;20035;-65
2022/12/29 06:31:16;;;;;;;5.78;0.75;;;9.40;99.90;;;;;;5080872;28;20041;-65
2022/12/29 06:33:42;;;;;;;5.57;0.85;;;9.30;99.90;;;;;;5060264;28;20152;-65
2022/12/29 06:36:07;;;;;;;6.28;1.00;;;9.30;99.90;;;;;;5082067;28;20033;-65
2022/12/29 06:38:35;;;;;;;8.63;1.23;;;9.40;99.90;;;;;;5080145;28;20423;-65
2022/12/29 06:41:01;;;;;;;9.48;1.58;;;9.40;99.90;;;;;;5076635;28;20043;-65
2022/12/29 06:43:27;;;;;;;8.05;1.30;;;9.40;99.90;;;;;;5065162;28;20555;-65
2022/12/29 06:45:52;;;;;;;8.75;1.30;;;9.40;99.90;;;;;;5083182;28;20028;-65
2022/12/29 06:48:18;;;;;;;9.80;1.30;;;9.40;99.90;;;;;;5068245;28;20437;-66
2022/12/29 06:50:47;;;;;;;7.55;1.45;;;9.40;99.90;;;;;;5062510;28;20048;-66
2022/12/29 06:53:12;;;;;;;7.53;1.20;;;9.40;99.90;;;;;;5083911;28;20464;-64
2022/12/29 06:55:38;;;;;;;9.27;1.63;;;9.30;99.90;;;;;;5085934;28;20032;-63
2022/12/29 06:58:04;;;;;;;7.95;1.15;;;9.30;99.90;;;;;;5067030;28;20048;-65
2022/12/29 07:00:30;;;;;;;7.65;1.23;;;9.30;99.90;;;;;;5085183;28;20092;-65
2022/12/29 07:02:59;;;;;;;8.85;1.58;;;9.30;99.90;;;;;;5084384;28;20468;-65
2022/12/29 07:05:27;;;;;;;8.18;1.02;;;9.30;99.90;;;;;;5088189;28;20032;-65
2022/12/29 07:07:56;;;;;;;5.82;1.10;;;9.40;99.90;;;;;;5072147;28;20123;-65
2022/12/29 07:10:22;;;;;;;8.77;1.33;;;9.30;99.90;;;;;;5086993;28;20387;-66
2022/12/29 07:12:48;;;;;;;6.82;1.00;;;9.40;99.90;;;;;;5065644;28;20052;-65
2022/12/29 07:15:14;;;;;;;7.80;1.23;;;9.40;99.90;;;;;;5083562;28;20055;-65
2022/12/29 07:17:39;;;;;;;10.38;1.60;;;9.40;99.90;;;;;;5067158;28;20258;-65
2022/12/29 07:20:06;;;;;;;10.98;1.45;;;9.40;99.90;;;;;;5085612;28;20043;-66
2022/12/29 07:22:32;;;;;;;8.73;1.77;;;9.40;99.90;;;;;;5085058;28;20483;-65
2022/12/29 07:24:58;;;;;;;11.88;1.92;;;9.40;99.90;;;;;;5085075;28;20387;-66
2022/12/29 07:27:24;;;;;;;9.25;1.80;;;9.40;99.90;;;;;;5087771;28;20032;-65
2022/12/29 07:29:50;;;;;;;21.58;9.95;;;9.40;99.90;;;;;;5065692;28;20047;-65
2022/12/29 07:32:16;;;;;;;12.43;1.83;;;9.40;99.90;;;;;;5084042;28;20113;-65
2022/12/29 07:34:41;;;;;;;10.45;1.52;;;9.40;99.90;;;;;;5064759;28;21540;-66
2022/12/29 07:37:07;;;;;;;7.95;2.20;;;9.40;99.90;;;;;;5080619;28;20507;-65
2022/12/29 07:39:33;;;;;;;10.38;1.52;;;9.40;99.90;;;;;;5086835;28;20392;-65
2022/12/29 07:41:59;;;;;;;10.13;1.58;;;9.50;99.90;;;;;;5083091;28;20047;-66
2022/12/29 07:44:25;;;;;;;11.38;1.67;;;9.40;99.90;;;;;;5081451;28;20056;-65
2022/12/29 07:46:51;;;;;;;6.95;1.10;;;9.50;99.90;;;;;;5088005;28;20480;-65
2022/12/29 07:49:16;;;;;;;11.20;2.33;;;9.40;99.90;;;;;;5087097;28;20047;-65
2022/12/29 07:51:42;;;;;;;8.80;1.50;;;9.40;99.90;;;;;;5069512;28;20509;-66
2022/12/29 07:54:09;;;;;;;7.50;1.52;;;9.50;99.90;;;;;;5068471;28;20040;-66
2022/12/29 07:56:35;;;;;;;12.18;1.73;;;9.50;99.90;;;;;;5067308;28;20222;-66
2022/12/29 07:59:01;;;;;;;9.43;1.27;;;9.50;99.90;;;;;;5083204;28;20177;-66
2022/12/29 08:01:26;;;;;;;11.82;1.77;;;9.50;99.90;;;;;;5052978;28;20123;-65
2022/12/29 08:03:52;;;;;;;12.70;1.70;;;9.50;99.90;;;;;;5066674;28;20036;-65
2022/12/29 08:06:19;;;;;;;15.25;1.92;;;9.40;99.90;;;;;;5087635;28;20032;-65
2022/12/29 08:08:45;;;;;;;10.05;1.65;;;9.40;99.90;;;;;;5084416;28;20075;-65
2022/12/29 08:11:11;;;;;;;12.82;1.67;;;9.40;99.90;;;;;;5084077;28;20039;-65
2022/12/29 08:13:37;;;;;;;12.52;1.52;;;9.40;99.90;;;;;;5083925;28;20044;-65
2022/12/29 08:16:03;;;;;;;13.60;2.08;;;9.40;99.90;;;;;;5062857;28;20104;-65
2022/12/29 08:18:29;;;;;;;12.13;2.47;;;9.40;99.90;;;;;;5082310;28;20040;-65
2022/12/29 08:20:55;;;;;;;10.20;1.52;;;9.40;99.90;;;;;;5069094;28;20488;-65
2022/12/29 08:23:21;;;;;;;13.55;1.77;;;9.40;99.90;;;;;;5082557;28;20032;-65
2022/12/29 08:25:46;;;;;;;15.30;2.25;;;9.40;99.90;;;;;;5084184;28;20168;-64
2022/12/29 08:28:12;;;;;;;12.18;2.03;;;9.40;99.90;;;;;;5084993;28;20035;-65
2022/12/29 08:30:38;;;;;;;14.68;2.58;;;9.50;99.90;;;;;;5065466;28;20048;-65
2022/12/29 08:33:04;;;;;;;15.95;2.05;;;9.40;99.90;;;;;;5068131;28;20044;-64
2022/12/29 08:35:29;;;;;;;14.73;2.42;;;9.50;99.90;;;;;;5084412;28;20523;-65
2022/12/29 08:37:56;;;;;;;16.45;2.75;;;9.50;99.90;;;;;;5065745;28;20543;-64
2022/12/29 08:40:21;;;;;;;17.65;2.33;;;9.50;99.90;;;;;;5086163;28;20057;-64
2022/12/29 08:42:47;;;;;;;15.48;2.28;;;9.60;99.90;;;;;;5067362;28;20039;-64
2022/12/29 08:45:13;;;;;;;15.30;2.38;;;9.60;99.90;;;;;;5085003;28;20099;-65
2022/12/29 08:47:38;;;;;;;16.77;2.53;;;9.60;99.90;;;;;;5086464;28;20040;-65
2022/12/29 08:50:05;;;;;;;17.15;2.67;;;9.60;99.90;;;;;;5068249;28;20043;-64
2022/12/29 08:52:30;;;;;;;11.07;2.20;;;9.60;99.90;;;;;;5086206;28;20149;-64
2022/12/29 08:54:56;;;;;;;13.02;2.33;;;9.60;99.90;;;;;;5086191;28;20048;-65
2022/12/29 08:57:22;;;;;;;10.88;1.70;;;9.70;99.90;;;;;;5083565;28;20081;-65
2022/12/29 08:59:48;;;;;;;12.98;2.17;;;9.70;99.90;;;;;;5085660;28;20306;-66
2022/12/29 09:02:13;;;;;;;13.38;2.42;;;9.70;99.90;;;;;;5065382;28;20109;-64
2022/12/29 09:04:39;;;;;;;12.90;1.75;;;9.70;99.90;;;;;;5065309;28;20083;-64
2022/12/29 09:07:05;;;;;;;11.77;1.70;;;9.80;99.90;;;;;;5066911;28;20116;-65
2022/12/29 09:09:32;;;;;;;11.65;2.05;;;9.80;99.90;;;;;;5084420;28;20051;-64
2022/12/29 09:11:57;;;;;;;6.57;1.65;;;9.80;99.90;;;;;;5087112;28;20062;-63
2022/12/29 09:14:23;;;;;;;15.30;2.00;;;9.80;99.90;;;;;;5083587;28;20032;-64
2022/12/29 09:19:36;;;;;;;13.82;2.00;;;9.70;99.90;;;;;;5079999;28;20448;-64
2022/12/29 09:22:02;;;;;;;11.85;2.00;;;9.60;99.90;;;;;;5084648;28;20044;-64
2022/12/29 09:24:28;;;;;;;13.57;2.42;;;9.60;99.90;;;;;;5080101;28;20079;-64
2022/12/29 09:26:54;;;;;;;12.48;2.30;;;9.50;99.90;;;;;;5086088;28;20056;-65
2022/12/29 09:29:20;;;;;;;10.07;3.17;;;9.50;99.90;;;;;;5081151;28;20040;-64
2022/12/29 09:31:46;;;;;;;15.82;2.33;;;9.40;99.90;;;;;;5081575;28;20040;-67
2022/12/29 09:34:11;;;;;;;13.77;2.20;;;9.40;99.90;;;;;;5082010;28;20044;-67
2022/12/29 09:36:37;;;;;;;13.13;2.22;;;9.40;99.90;;;;;;5059875;28;20040;-66
2022/12/29 09:39:03;;;;;;;14.52;2.42;;;9.40;99.90;;;;;;5086357;28;20055;-67
2022/12/29 09:41:58;;;;;;;9.75;1.85;;;9.40;99.90;;;;;;5083580;28;20032;-67
2022/12/29 09:44:39;;;;;;;12.68;2.60;;;9.40;99.90;;;;;;5045427;28;20040;-67
2022/12/29 09:47:10;;;;;;;12.10;2.15;;;9.40;99.90;;;;;;5082038;28;20032;-67
2022/12/29 09:49:55;;;;;;;11.73;2.47;;;9.40;99.90;;;;;;5062224;28;20040;-68
2022/12/29 09:52:29;;;;;;;12.70;2.38;;;9.40;99.90;;;;;;5082391;28;20040;-67
2022/12/29 09:55:12;;;;;;;12.40;1.88;;;9.40;99.90;;;;;;5073226;28;20036;-68
2022/12/29 09:58:02;;;;;;;12.77;1.63;;;9.30;99.90;;;;;;5083931;28;20033;-68
2022/12/29 10:01:10;;;;;;;12.70;2.10;;;9.30;99.90;;;;;;5050313;28;20082;-68
2022/12/29 10:03:50;;;;;;;13.57;1.85;;;9.20;99.90;;;;;;5055123;28;20048;-68
2022/12/29 10:06:32;;;;;;;12.52;1.85;;;9.20;99.90;;;;;;5079516;28;20032;-68
2022/12/29 10:09:23;;;;;;;12.77;2.42;;;9.10;99.90;;;;;;5077236;28;20066;-67
2022/12/29 10:12:10;;;;;;;9.23;1.65;;;9.10;99.90;;;;;;5077832;28;20033;-66
2022/12/29 10:15:07;;;;;;;12.95;2.25;;;9.10;99.90;;;;;;5079963;28;20072;-66
2022/12/29 10:17:58;;;;;;;11.32;2.35;;;9.00;99.90;;;;;;5052819;28;20132;-67
2022/12/29 10:20:43;;;;;;;14.30;1.90;;;9.00;99.90;;;;;;5081962;28;20035;-65
2022/12/29 10:23:39;;;;;;;8.40;1.60;;;9.00;99.90;;;;;;5063565;28;20107;-64
2022/12/29 10:26:14;;;;;;;11.95;2.00;;;9.00;99.90;;;;;;5058520;28;20067;-64
2022/12/29 10:28:43;;;;;;;15.90;2.17;;;9.00;99.90;;;;;;5079259;28;20138;-65
2022/12/29 10:31:42;;;;;;;13.35;1.65;;;8.90;99.90;;;;;;5079489;28;20082;-65
2022/12/29 10:34:29;;;;;;;8.05;1.35;;;8.90;99.90;;;;;;5076126;28;20028;-64
2022/12/29 10:37:03;;;;;;;13.02;2.55;;;8.90;99.90;;;;;;5076320;28;20040;-65
2022/12/29 10:39:52;;;;;;;12.10;1.70;;;8.90;99.90;;;;;;5062655;28;20051;-65
2022/12/29 10:42:36;;;;;;;11.13;3.17;;;8.90;99.90;;;;;;5078710;28;20040;-64
2022/12/29 10:45:05;;;;;;;12.17;1.97;;;8.80;99.90;;;;;;5077775;28;20361;-65
2022/12/29 10:47:35;;;;;;;6.75;1.50;;;8.80;99.90;;;;;;5079441;28;20157;-64
2022/12/29 10:50:02;;;;;;;7.70;1.50;;;8.80;99.90;;;;;;5043505;28;20040;-64
2022/12/29 10:52:30;;;;;;;10.63;1.85;;;8.80;99.90;;;;;;5058226;28;20078;-64
2022/12/29 10:54:59;;;;;;;10.93;1.80;;;8.80;99.90;;;;;;5061521;28;20035;-64
2022/12/29 10:57:40;;;;;;;12.60;2.05;;;8.80;99.90;;;;;;5080267;28;20024;-64
2022/12/29 11:00:30;;;;;;;12.40;1.83;;;8.80;99.90;;;;;;5059466;28;20067;-64
2022/12/29 11:03:13;;;;;;;9.80;1.75;;;8.80;99.90;;;;;;5077604;28;20074;-64
2022/12/29 11:05:45;;;;;;;12.05;1.42;;;8.80;99.90;;;;;;5075853;28;20039;-65
2022/12/29 11:08:22;;;;;;;11.45;1.33;;;8.90;99.90;;;;;;5078909;28;20137;-65
2022/12/29 11:11:01;;;;;;;12.57;1.75;;;8.90;99.90;;;;;;5078423;28;20113;-64
2022/12/29 11:13:32;;;;;;;12.27;2.00;;;8.90;99.90;;;;;;5078126;28;20040;-64
2022/12/29 11:15:59;;;;;;;11.02;1.63;;;9.00;99.90;;;;;;5083755;28;20097;-65
2022/12/29 11:18:31;;;;;;;16.35;1.63;;;9.00;99.90;;;;;;5045354;28;20028;-65
2022/12/29 11:21:01;;;;;;;7.18;1.33;;;9.00;99.90;;;;;;5078218;28;20043;-66
2022/12/29 11:23:32;;;;;;;11.65;1.80;;;9.00;99.90;;;;;;5080821;28;20051;-65
2022/12/29 11:26:19;;;;;;;9.32;1.60;;;9.10;99.90;;;;;;5081904;28;20040;-65
2022/12/29 11:29:03;;;;;;;10.88;2.08;;;9.10;99.90;;;;;;5060791;28;20053;-65
2022/12/29 11:31:29;;;;;;;10.18;2.20;;;9.10;99.90;;;;;;5065314;28;20040;-65
2022/12/29 11:33:55;;;;;;;12.82;2.50;;;9.10;99.90;;;;;;5080757;28;20044;-65
2022/12/29 11:36:24;;;;;;;15.75;2.05;;;9.10;99.90;;;;;;5081211;28;20032;-65
2022/12/29 11:38:55;;;;;;;19.60;3.22;;;9.20;99.90;;;;;;5078770;28;20067;-66
2022/12/29 11:41:27;;;;;;;15.75;2.30;;;9.20;99.90;;;;;;5062898;28;20309;-66
2022/12/29 11:43:57;;;;;;;11.57;3.17;;;9.30;99.90;;;;;;5080453;28;20059;-65
2022/12/29 11:46:33;;;;;;;14.25;3.05;;;9.40;99.90;;;;;;5070228;28;20044;-65
2022/12/29 11:49:00;;;;;;;21.23;2.75;;;9.50;99.90;;;;;;5083621;28;20163;-65
2022/12/29 11:51:47;;;;;;;16.60;2.67;;;9.50;99.90;;;;;;5064382;28;20045;-65
2022/12/29 11:54:28;;;;;;;11.93;2.45;;;9.50;99.90;;;;;;5082707;28;20044;-65
2022/12/29 11:56:54;;;;;;;14.05;2.75;;;9.50;99.90;;;;;;5084369;28;20558;-65
2022/12/29 11:59:36;;;;;;;19.13;3.65;;;9.50;99.90;;;;;;5082317;28;20564;-66
2022/12/29 12:02:19;;;;;;;14.20;3.10;;;9.60;99.90;;;;;;5087029;28;20036;-65
2022/12/29 12:04:47;;;;;;;18.45;2.88;;;9.60;99.90;;;;;;5068020;28;20126;-66
2022/12/29 12:07:22;;;;;;;21.27;2.78;;;9.50;99.90;;;;;;5083577;28;20029;-66
2022/12/29 12:09:57;;;;;;;17.60;2.25;;;9.50;99.90;;;;;;5063954;28;20502;-66
2022/12/29 12:12:25;;;;;;;16.67;2.05;;;9.50;99.90;;;;;;5083331;28;20041;-66
2022/12/29 12:14:59;;;;;;;18.33;4.55;;;9.50;99.90;;;;;;5058841;28;20083;-66
2022/12/29 12:17:37;;;;;;;14.70;2.17;;;9.50;99.90;;;;;;5061976;28;20044;-66
2022/12/29 12:20:17;;;;;;;20.63;2.53;;;9.40;99.90;;;;;;5080313;28;20044;-66
2022/12/29 12:22:58;;;;;;;18.23;2.80;;;9.40;99.90;;;;;;5060188;28;20075;-66
2022/12/29 12:25:31;;;;;;;15.40;2.70;;;9.40;99.90;;;;;;5058368;28;20057;-66
2022/12/29 12:28:05;;;;;;;18.85;2.80;;;9.40;99.90;;;;;;5063132;28;20040;-65
2022/12/29 12:30:40;;;;;;;22.10;3.30;;;9.40;99.90;;;;;;5064174;28;20056;-66
2022/12/29 12:33:17;;;;;;;20.83;4.18;;;9.30;99.90;;;;;;5084126;28;20040;-66
2022/12/29 12:36:08;;;;;;;17.20;2.53;;;9.30;99.90;;;;;;5064451;28;20040;-67
2022/12/29 12:39:02;;;;;;;17.55;3.22;;;9.30;99.90;;;;;;5057420;28;20053;-66
2022/12/29 12:41:40;;;;;;;19.52;3.85;;;9.30;99.90;;;;;;5058069;28;20055;-66
2022/12/29 12:44:36;;;;;;;19.45;3.35;;;9.30;99.90;;;;;;5062955;28;20041;-65
2022/12/29 12:47:15;;;;;;;18.13;2.50;;;9.40;99.90;;;;;;5058749;28;20589;-66
2022/12/29 12:50:08;;;;;;;15.52;3.13;;;9.40;99.90;;;;;;5055250;28;20047;-66
2022/12/29 12:52:56;;;;;;;18.95;3.03;;;9.40;99.90;;;;;;5058219;28;20492;-66
2022/12/29 12:55:30;;;;;;;20.83;2.67;;;9.30;99.90;;;;;;5060656;28;20051;-66
2022/12/29 12:58:39;;;;;;;20.08;3.50;;;9.30;99.90;;;;;;5064237;28;20041;-66
2022/12/29 13:01:04;;;;;;;21.30;3.53;;;9.30;99.90;;;;;;5062034;28;20036;-65
2022/12/29 13:03:52;;;;;;;15.60;3.38;;;9.30;99.90;;;;;;5061222;28;20406;-65
2022/12/29 13:06:43;;;;;;;16.48;2.53;;;9.30;99.90;;;;;;5062120;28;20044;-67
2022/12/29 13:09:34;;;;;;;10.23;1.80;;;9.30;99.90;;;;;;5059406;28;20044;-66
2022/12/29 13:12:05;;;;;;;20.27;2.67;;;9.30;99.90;;;;;;5057947;28;20090;-66
2022/12/29 13:14:34;;;;;;;12.10;2.63;;;9.20;99.90;;;;;;5061055;28;20037;-66
2022/12/29 13:17:24;;;;;;;17.23;2.70;;;9.20;99.90;;;;;;5057076;28;20515;-66
2022/12/29 13:20:22;;;;;;;17.10;2.55;;;9.30;99.90;;;;;;5061072;28;20067;-66
2022/12/29 13:23:09;;;;;;;14.93;2.70;;;9.20;99.90;;;;;;5060540;28;20047;-66
2022/12/29 13:25:41;;;;;;;11.95;2.00;;;9.20;99.90;;;;;;5058967;28;20085;-67
2022/12/29 13:28:19;;;;;;;15.23;2.63;;;9.20;99.90;;;;;;5057938;28;20397;-68
2022/12/29 13:30:59;;;;;;;13.82;2.97;;;9.20;99.90;;;;;;5060179;28;20049;-68
2022/12/29 13:33:41;;;;;;;12.95;2.65;;;9.10;99.90;;;;;;5060515;28;20052;-68
2022/12/29 13:36:14;;;;;;;18.42;2.75;;;9.20;99.90;;;;;;5062143;28;20064;-68
2022/12/29 13:38:46;;;;;;;24.53;7.93;;;9.20;99.90;;;;;;5070440;28;20056;-67
2022/12/29 13:41:18;;;;;;;14.93;2.83;;;9.20;99.90;;;;;;5081060;28;20750;-67
2022/12/29 13:43:47;;;;;;;15.73;2.50;;;9.20;99.90;;;;;;5058013;28;20063;-67
2022/12/29 13:46:18;;;;;;;13.07;2.15;;;9.20;99.90;;;;;;5062955;28;20040;-66